Time;durP1;ratioP1;P1;durP2;ratioP2;P2;SDS_P1;SDS_P2;PMS_P1;PMS_P2;Temp;Humidity;BMP_temperature;BMP_pressure;BME280_temperature;BME280_humidity;BME280_pressure;Samples;Min_cycle;Max_cycle;Signal;HPM_P1;HPM_P2
2023/03/10 00:00:08;;;;;;;3.20;1.40;;;;;;;;;;6010644;23;20077;-70
2023/03/10 00:02:35;;;;;;;4.57;1.77;;;;;;;;;;6031608;23;20027;-69
2023/03/10 00:05:02;;;;;;;3.40;1.60;;;;;;;;;;6055225;23;20027;-70
2023/03/10 00:07:29;;;;;;;4.32;1.80;;;;;;;;;;6047384;23;20026;-69
2023/03/10 00:09:58;;;;;;;3.85;1.58;;;;;;;;;;6041772;23;20077;-69
2023/03/10 00:12:26;;;;;;;3.35;1.65;;;;;;;;;;6044157;23;20030;-70
2023/03/10 00:14:53;;;;;;;3.90;1.45;;;;;;;;;;6035942;23;20030;-69
2023/03/10 00:17:20;;;;;;;4.40;1.60;;;;;;;;;;6015220;23;20026;-69
2023/03/10 00:19:47;;;;;;;4.10;1.70;;;;;;;;;;6033125;23;20085;-69
2023/03/10 00:22:19;;;;;;;3.83;1.70;;;;;;;;;;6028413;23;20239;-70
2023/03/10 00:24:46;;;;;;;3.20;1.58;;;;;;;;;;6046695;23;20023;-70
2023/03/10 00:27:16;;;;;;;3.03;1.42;;;;;;;;;;6064773;23;20037;-69
2023/03/10 00:29:43;;;;;;;4.97;1.70;;;;;;;;;;6051639;23;20031;-69
2023/03/10 00:32:12;;;;;;;3.80;1.63;;;;;;;;;;6035365;23;20033;-70
2023/03/10 00:34:38;;;;;;;3.15;1.67;;;;;;;;;;6056629;23;20027;-72
2023/03/10 00:37:08;;;;;;;3.97;1.70;;;;;;;;;;6029828;23;20050;-71
2023/03/10 00:39:34;;;;;;;3.70;1.45;;;;;;;;;;6069920;23;20030;-70
2023/03/10 00:42:05;;;;;;;5.28;1.83;;;;;;;;;;6072910;23;20040;-71
2023/03/10 00:44:36;;;;;;;2.55;1.30;;;;;;;;;;6044248;23;20548;-70
2023/03/10 00:47:03;;;;;;;3.30;1.48;;;;;;;;;;6068196;23;20025;-70
2023/03/10 00:49:29;;;;;;;3.95;1.52;;;;;;;;;;6047029;23;20033;-69
2023/03/10 00:51:58;;;;;;;3.50;1.52;;;;;;;;;;6031379;23;20030;-70
2023/03/10 00:54:24;;;;;;;;;;;;;;;;;;6076851;23;20017;-69
2023/03/10 00:56:51;;;;;;;2.65;1.30;;;;;;;;;;6056131;23;19952;-69
2023/03/10 00:59:17;;;;;;;2.88;1.50;;;;;;;;;;6082831;23;20034;-69
2023/03/10 01:01:45;;;;;;;3.38;1.70;;;;;;;;;;6034321;23;20105;-69
2023/03/10 01:04:17;;;;;;;3.40;1.50;;;;;;;;;;6045770;23;20065;-69
2023/03/10 01:06:46;;;;;;;4.15;1.52;;;;;;;;;;6074016;23;20101;-70
2023/03/10 01:09:12;;;;;;;;;;;;;;;;;;6067028;23;20053;-70
2023/03/10 01:11:39;;;;;;;2.50;1.15;;;;;;;;;;6051361;23;19928;-69
2023/03/10 01:14:07;;;;;;;4.50;1.52;;;;;;;;;;6052764;23;20030;-69
2023/03/10 01:16:34;;;;;;;3.88;1.80;;;;;;;;;;6045870;23;20030;-69
2023/03/10 01:19:04;;;;;;;4.05;1.63;;;;;;;;;;6075959;23;20030;-69
2023/03/10 01:21:32;;;;;;;3.20;1.55;;;;;;;;;;6045739;23;20178;-69
2023/03/10 01:24:01;;;;;;;3.33;1.60;;;;;;;;;;6076985;23;20030;-70
2023/03/10 01:26:27;;;;;;;3.33;1.67;;;;;;;;;;6051056;23;20420;-69
2023/03/10 01:28:58;;;;;;;3.17;1.35;;;;;;;;;;6040097;23;20023;-68
2023/03/10 01:31:25;;;;;;;3.13;1.63;;;;;;;;;;6052039;23;20034;-68
2023/03/10 01:33:56;;;;;;;3.78;1.63;;;;;;;;;;6032674;23;20042;-69
2023/03/10 01:36:27;;;;;;;4.00;1.50;;;;;;;;;;6064418;23;20094;-69
2023/03/10 01:38:54;;;;;;;3.55;1.50;;;;;;;;;;6035302;23;20120;-68
2023/03/10 01:41:21;;;;;;;2.90;1.48;;;;;;;;;;6053966;23;20062;-69
2023/03/10 01:43:50;;;;;;;3.03;1.30;;;;;;;;;;5993075;23;20027;-70
2023/03/10 01:46:31;;;;;;;3.95;1.50;;;;;;;;;;5994385;23;20254;-71
2023/03/10 01:49:00;;;;;;;3.17;1.55;;;;;;;;;;6003245;23;20022;-70
2023/03/10 01:51:29;;;;;;;4.32;1.75;;;;;;;;;;5987165;23;20054;-71
2023/03/10 01:53:56;;;;;;;3.13;1.50;;;;;;;;;;6004522;23;20050;-69
2023/03/10 01:56:23;;;;;;;2.53;1.30;;;;;;;;;;5993087;23;20177;-69
2023/03/10 01:58:50;;;;;;;3.10;1.45;;;;;;;;;;6043238;23;20034;-69
2023/03/10 02:01:17;;;;;;;3.22;1.40;;;;;;;;;;6043056;23;20030;-70
2023/03/10 02:03:46;;;;;;;2.78;1.42;;;;;;;;;;6060622;23;20022;-70
2023/03/10 02:06:18;;;;;;;4.82;1.67;;;;;;;;;;6034341;23;20070;-71
2023/03/10 02:08:50;;;;;;;2.78;1.40;;;;;;;;;;6049835;23;20036;-70
2023/03/10 02:11:20;;;;;;;4.30;1.67;;;;;;;;;;6040701;23;20030;-70
2023/03/10 02:13:47;;;;;;;4.22;1.80;;;;;;;;;;6071988;23;20097;-71
2023/03/10 02:16:17;;;;;;;3.78;1.63;;;;;;;;;;6032122;23;20050;-70
2023/03/10 02:18:45;;;;;;;3.72;1.55;;;;;;;;;;6034618;23;20036;-69
2023/03/10 02:21:16;;;;;;;3.60;1.50;;;;;;;;;;6023226;23;20030;-69
2023/03/10 02:23:48;;;;;;;5.25;1.45;;;;;;;;;;6046431;23;20034;-70
2023/03/10 02:26:22;;;;;;;4.65;1.90;;;;;;;;;;6034668;23;20229;-70
2023/03/10 02:28:54;;;;;;;3.47;1.70;;;;;;;;;;6043531;23;20114;-69
2023/03/10 02:31:21;;;;;;;1.83;1.13;;;;;;;;;;6083900;23;20026;-69
2023/03/10 02:33:48;;;;;;;3.35;1.30;;;;;;;;;;6057618;23;20072;-69
2023/03/10 02:36:15;;;;;;;4.10;1.70;;;;;;;;;;6022496;23;20045;-70
2023/03/10 02:38:44;;;;;;;2.88;1.55;;;;;;;;;;5996741;23;20097;-70
2023/03/10 02:41:16;;;;;;;3.33;1.48;;;;;;;;;;6056651;23;20041;-69
2023/03/10 02:43:43;;;;;;;2.97;1.50;;;;;;;;;;6061508;23;20034;-69
2023/03/10 02:46:10;;;;;;;2.88;1.50;;;;;;;;;;6068320;23;20034;-70
2023/03/10 02:48:38;;;;;;;3.70;1.70;;;;;;;;;;6050295;23;20030;-70
2023/03/10 02:51:06;;;;;;;3.80;1.50;;;;;;;;;;6029627;23;20086;-69
2023/03/10 02:53:33;;;;;;;4.30;1.75;;;;;;;;;;6049517;23;20031;-69
2023/03/10 02:55:59;;;;;;;3.65;1.52;;;;;;;;;;6073872;23;20076;-69
2023/03/10 02:58:27;;;;;;;2.78;1.40;;;;;;;;;;6058178;23;20457;-70
2023/03/10 03:00:54;;;;;;;3.95;1.77;;;;;;;;;;6048701;23;20035;-69
2023/03/10 03:03:23;;;;;;;2.90;1.38;;;;;;;;;;6075119;23;20037;-70
2023/03/10 03:05:52;;;;;;;3.90;1.60;;;;;;;;;;5992079;23;20525;-70
2023/03/10 03:08:19;;;;;;;2.83;1.40;;;;;;;;;;6062819;23;20037;-70
2023/03/10 03:10:46;;;;;;;4.60;1.80;;;;;;;;;;6057542;23;20089;-70
2023/03/10 03:13:14;;;;;;;3.50;1.50;;;;;;;;;;6088478;23;20032;-70
2023/03/10 03:15:41;;;;;;;3.25;1.55;;;;;;;;;;5984355;23;20091;-69
2023/03/10 03:18:08;;;;;;;2.78;1.50;;;;;;;;;;6051809;23;20093;-69
2023/03/10 03:20:37;;;;;;;7.00;1.85;;;;;;;;;;6040685;23;20030;-69
2023/03/10 03:23:03;;;;;;;3.42;1.50;;;;;;;;;;6061478;23;20026;-69
2023/03/10 03:25:30;;;;;;;4.55;1.70;;;;;;;;;;6000085;23;20037;-69
2023/03/10 03:27:57;;;;;;;3.70;1.70;;;;;;;;;;6062081;23;20028;-70
2023/03/10 03:30:25;;;;;;;6.00;2.00;;;;;;;;;;6071418;23;20113;-69
2023/03/10 03:32:52;;;;;;;3.28;1.70;;;;;;;;;;6059853;23;20076;-69
2023/03/10 03:35:21;;;;;;;3.63;1.80;;;;;;;;;;6068572;23;20026;-69
2023/03/10 03:37:52;;;;;;;3.85;1.80;;;;;;;;;;6034294;23;20040;-69
2023/03/10 03:40:19;;;;;;;3.50;1.67;;;;;;;;;;6061314;23;20331;-69
2023/03/10 03:42:47;;;;;;;4.47;1.88;;;;;;;;;;6050095;23;20041;-70
2023/03/10 03:45:15;;;;;;;3.42;1.48;;;;;;;;;;6043066;23;20025;-69
2023/03/10 03:47:41;;;;;;;3.95;1.65;;;;;;;;;;6070862;23;20033;-69
2023/03/10 03:50:10;;;;;;;4.53;2.00;;;;;;;;;;6073584;23;20030;-69
2023/03/10 03:52:37;;;;;;;3.78;1.92;;;;;;;;;;6051279;23;20097;-70
2023/03/10 03:55:08;;;;;;;4.43;1.80;;;;;;;;;;6008102;23;20022;-70
2023/03/10 03:57:34;;;;;;;3.22;1.58;;;;;;;;;;6082235;23;20062;-70
2023/03/10 04:00:03;;;;;;;4.50;1.83;;;;;;;;;;6074233;23;20018;-69
2023/03/10 04:02:38;;;;;;;3.28;1.70;;;;;;;;;;6074193;23;20038;-69
2023/03/10 04:05:06;;;;;;;6.00;2.25;;;;;;;;;;6055643;23;20026;-69
2023/03/10 04:07:33;;;;;;;4.18;1.85;;;;;;;;;;6039927;23;20030;-69
2023/03/10 04:10:01;;;;;;;4.15;2.30;;;;;;;;;;6058179;23;20056;-69
2023/03/10 04:12:30;;;;;;;3.63;1.90;;;;;;;;;;6045116;23;20034;-70
2023/03/10 04:14:58;;;;;;;3.55;1.83;;;;;;;;;;6010086;23;20105;-69
2023/03/10 04:17:24;;;;;;;4.68;1.98;;;;;;;;;;6042040;23;20026;-69
2023/03/10 04:19:54;;;;;;;4.20;1.92;;;;;;;;;;6031265;23;20049;-69
2023/03/10 04:22:23;;;;;;;4.38;1.88;;;;;;;;;;6004871;23;20486;-69
2023/03/10 04:24:49;;;;;;;5.50;1.83;;;;;;;;;;6060625;23;20033;-69
2023/03/10 04:27:17;;;;;;;4.35;1.90;;;;;;;;;;6061667;23;20026;-69
2023/03/10 04:29:48;;;;;;;4.45;1.90;;;;;;;;;;6058409;23;20065;-69
2023/03/10 04:32:18;;;;;;;4.28;1.80;;;;;;;;;;6066760;23;20109;-69
2023/03/10 04:34:46;;;;;;;3.17;1.65;;;;;;;;;;6032736;23;20033;-69
2023/03/10 04:37:19;;;;;;;4.53;1.93;;;;;;;;;;6062726;23;20110;-69
2023/03/10 04:39:45;;;;;;;6.03;2.28;;;;;;;;;;6055962;23;20036;-69
2023/03/10 04:42:17;;;;;;;4.07;1.80;;;;;;;;;;6062524;23;20026;-69
2023/03/10 04:44:45;;;;;;;4.20;1.60;;;;;;;;;;6033497;23;20033;-69
2023/03/10 04:47:12;;;;;;;4.55;1.75;;;;;;;;;;6059574;23;20081;-68
2023/03/10 04:49:39;;;;;;;5.32;2.00;;;;;;;;;;6046793;23;20231;-69
2023/03/10 04:52:07;;;;;;;4.03;1.83;;;;;;;;;;6061735;23;20027;-69
2023/03/10 04:54:34;;;;;;;3.40;1.70;;;;;;;;;;6022631;23;20030;-70
2023/03/10 04:57:01;;;;;;;4.40;1.80;;;;;;;;;;6019520;23;20031;-71
2023/03/10 04:59:27;;;;;;;4.80;2.10;;;;;;;;;;6073761;23;20033;-69
2023/03/10 05:01:55;;;;;;;3.75;1.80;;;;;;;;;;6069494;23;20022;-69
2023/03/10 05:04:22;;;;;;;3.17;1.38;;;;;;;;;;6071895;23;20026;-69
2023/03/10 05:06:49;;;;;;;3.17;1.73;;;;;;;;;;6040608;23;22233;-69
2023/03/10 05:09:16;;;;;;;4.05;1.73;;;;;;;;;;6065873;23;20029;-69
2023/03/10 05:11:43;;;;;;;3.75;1.75;;;;;;;;;;6059113;23;20037;-69
2023/03/10 05:14:10;;;;;;;4.35;1.73;;;;;;;;;;6043288;23;20026;-69
2023/03/10 05:16:37;;;;;;;3.38;1.60;;;;;;;;;;6061477;23;20062;-69
2023/03/10 05:19:04;;;;;;;3.92;1.70;;;;;;;;;;6099140;23;20038;-68
2023/03/10 05:21:31;;;;;;;3.47;1.48;;;;;;;;;;6079639;23;20102;-69
2023/03/10 05:23:57;;;;;;;4.47;1.52;;;;;;;;;;6076992;23;20029;-69
2023/03/10 05:26:27;;;;;;;3.78;1.48;;;;;;;;;;6015137;23;20089;-69
2023/03/10 05:28:56;;;;;;;3.60;1.75;;;;;;;;;;6097304;23;20466;-68
2023/03/10 05:31:25;;;;;;;4.60;1.73;;;;;;;;;;6086007;23;20038;-69
2023/03/10 05:34:01;;;;;;;3.97;1.67;;;;;;;;;;6061006;23;20034;-69
2023/03/10 05:36:31;;;;;;;4.03;1.73;;;;;;;;;;5995558;23;20121;-69
2023/03/10 05:39:01;;;;;;;3.05;1.50;;;;;;;;;;6062186;23;20038;-69
2023/03/10 05:41:28;;;;;;;4.45;1.60;;;;;;;;;;6097782;23;20058;-69
2023/03/10 05:44:01;;;;;;;4.25;1.73;;;;;;;;;;6087449;23;20030;-68
2023/03/10 05:46:30;;;;;;;3.22;1.60;;;;;;;;;;5981650;23;20030;-69
2023/03/10 05:48:57;;;;;;;3.03;1.40;;;;;;;;;;6036298;23;20057;-69
2023/03/10 05:51:29;;;;;;;2.80;1.40;;;;;;;;;;6073083;23;20034;-69
2023/03/10 05:53:57;;;;;;;3.33;1.42;;;;;;;;;;6064937;23;20030;-69
2023/03/10 05:56:27;;;;;;;3.50;1.65;;;;;;;;;;6002388;23;20026;-69
2023/03/10 05:58:56;;;;;;;4.35;1.85;;;;;;;;;;6069595;23;20038;-68
2023/03/10 06:01:23;;;;;;;3.15;1.50;;;;;;;;;;6077540;23;20134;-69
2023/03/10 06:03:50;;;;;;;3.63;1.55;;;;;;;;;;6059943;23;20026;-69
2023/03/10 06:06:22;;;;;;;3.13;1.40;;;;;;;;;;5985570;23;20063;-70
2023/03/10 06:08:51;;;;;;;3.63;1.55;;;;;;;;;;6047238;23;20108;-69
2023/03/10 06:11:22;;;;;;;4.57;1.55;;;;;;;;;;6049287;23;20029;-69
2023/03/10 06:13:48;;;;;;;3.55;1.45;;;;;;;;;;6061268;23;20077;-69
2023/03/10 06:16:15;;;;;;;2.92;1.30;;;;;;;;;;5918197;23;20032;-69
2023/03/10 06:18:43;;;;;;;3.60;1.45;;;;;;;;;;6068502;23;20030;-69
2023/03/10 06:21:13;;;;;;;3.77;1.40;;;;;;;;;;6098651;23;20030;-70
2023/03/10 06:23:40;;;;;;;4.10;1.73;;;;;;;;;;6048957;23;20270;-70
2023/03/10 06:26:09;;;;;;;5.43;1.70;;;;;;;;;;5878025;23;20254;-69
2023/03/10 06:28:41;;;;;;;3.55;1.48;;;;;;;;;;6026304;23;20079;-70
2023/03/10 06:31:09;;;;;;;2.85;1.17;;;;;;;;;;6069093;23;20033;-70
2023/03/10 06:33:38;;;;;;;3.60;1.45;;;;;;;;;;6005210;23;20080;-70
2023/03/10 06:36:07;;;;;;;2.85;1.42;;;;;;;;;;5941475;23;20040;-70
2023/03/10 06:38:33;;;;;;;2.97;1.48;;;;;;;;;;6030568;23;20029;-70
2023/03/10 06:41:00;;;;;;;2.65;1.40;;;;;;;;;;6074444;23;20076;-69
2023/03/10 06:43:30;;;;;;;2.30;1.17;;;;;;;;;;6048836;23;20030;-69
2023/03/10 06:45:58;;;;;;;2.50;1.33;;;;;;;;;;5997722;23;20046;-69
2023/03/10 06:48:35;;;;;;;2.60;1.23;;;;;;;;;;6049854;23;20026;-69
2023/03/10 06:51:10;;;;;;;3.55;1.65;;;;;;;;;;6063574;23;20026;-69
2023/03/10 06:53:36;;;;;;;2.35;1.17;;;;;;;;;;6060098;23;20022;-69
2023/03/10 06:56:06;;;;;;;3.50;1.35;;;;;;;;;;5972422;23;20027;-69
2023/03/10 06:58:35;;;;;;;5.85;1.85;;;;;;;;;;6012822;23;20087;-69
2023/03/10 07:01:16;;;;;;;4.35;1.20;;;;;;;;;;6027248;23;20175;-69
2023/03/10 07:03:57;;;;;;;3.60;1.50;;;;;;;;;;5987050;23;20027;-69
2023/03/10 07:06:23;;;;;;;3.22;1.45;;;;;;;;;;5956927;23;20027;-69
2023/03/10 07:08:51;;;;;;;3.95;1.48;;;;;;;;;;6022818;23;20059;-69
2023/03/10 07:11:21;;;;;;;3.85;1.50;;;;;;;;;;6002685;23;20026;-69
2023/03/10 07:13:48;;;;;;;3.00;1.25;;;;;;;;;;5980653;23;20031;-70
2023/03/10 07:16:14;;;;;;;3.17;1.40;;;;;;;;;;5998649;23;20030;-70
2023/03/10 07:18:43;;;;;;;4.47;1.70;;;;;;;;;;5993101;23;20034;-70
2023/03/10 07:21:18;;;;;;;3.35;1.40;;;;;;;;;;5995678;23;20027;-71
2023/03/10 07:23:49;;;;;;;3.28;1.42;;;;;;;;;;6039763;23;20080;-71
2023/03/10 07:26:18;;;;;;;2.97;1.58;;;;;;;;;;5948011;23;20079;-71
2023/03/10 07:28:47;;;;;;;3.03;1.33;;;;;;;;;;6063466;23;20034;-71
2023/03/10 07:31:15;;;;;;;2.67;1.33;;;;;;;;;;6048213;23;20038;-71
2023/03/10 07:33:42;;;;;;;3.13;1.65;;;;;;;;;;6044710;23;20030;-71
2023/03/10 07:36:10;;;;;;;3.03;1.35;;;;;;;;;;5997456;23;20022;-69
2023/03/10 07:38:47;;;;;;;4.30;1.55;;;;;;;;;;6032552;23;20034;-71
2023/03/10 07:41:23;;;;;;;2.90;1.40;;;;;;;;;;6045490;23;20354;-70
2023/03/10 07:43:49;;;;;;;;;;;;;;;;;;6021958;23;20622;-69
2023/03/10 07:49:02;;;;;;;;;;;;;;;;;;;;;
2023/03/10 07:51:36;;;;;;;3.85;1.40;;;;;;;;;;6009847;23;20361;-72
2023/03/10 07:54:06;;;;;;;3.45;1.33;;;;;;;;;;5988706;23;20577;-72
2023/03/10 07:56:48;;;;;;;3.03;1.30;;;;;;;;;;5963527;23;20131;-70
2023/03/10 08:04:40;;;;;;;3.15;1.40;;;;;;;;;;4957107;27;20582;-72
2023/03/10 08:07:13;;;;;;;3.58;1.48;;;;;;;;;;4909468;28;20050;-73
2023/03/10 08:09:41;;;;;;;4.65;1.30;;;;;;;;;;4918038;28;20055;-71
2023/03/10 08:12:16;;;;;;;4.32;1.70;;;;;;;;;;4869341;29;20048;-72
2023/03/10 08:14:57;;;;;;;3.28;1.38;;;;;;;;;;4839026;29;20230;-72
2023/03/10 08:17:50;;;;;;;;;;;;;;;;;;;;;
2023/03/10 08:20:26;;;;;;;4.28;1.48;;;;;;;;;;4855352;29;20280;-73
2023/03/10 08:30:37;;;;;;;3.78;1.33;;;;;;;;;;4824389;29;20125;-71
2023/03/10 08:33:14;;;;;;;3.20;1.30;;;;;;;;;;4862022;28;20104;-69
2023/03/10 08:35:45;;;;;;;2.70;1.27;;;;;;;;;;4871314;29;20094;-70
2023/03/10 08:38:15;;;;;;;3.03;1.38;;;;;;;;;;4875177;28;20047;-69
2023/03/10 08:40:42;;;;;;;3.40;1.55;;;;;;;;;;4964002;28;20141;-69
2023/03/10 08:43:08;;;;;;;6.43;1.60;;;;;;;;;;4959706;28;20158;-69
2023/03/10 08:45:40;;;;;;;2.80;1.23;;;;;;;;;;4954920;28;20050;-70
2023/03/10 08:48:07;;;;;;;3.30;1.25;;;;;;;;;;4948573;28;20127;-69
2023/03/10 08:50:39;;;;;;;3.90;1.50;;;;;;;;;;4962394;28;20054;-68
2023/03/10 08:53:11;;;;;;;3.97;1.30;;;;;;;;;;4940472;28;20062;-73
2023/03/10 09:03:45;;;;;;;2.85;1.08;;;;;;;;;;4979013;28;20453;-71
2023/03/10 09:11:44;;;;;;;3.33;1.48;;;;;;;;;;4974467;27;20541;-70
2023/03/10 09:14:11;;;;;;;3.50;1.35;;;;;;;;;;4978732;28;20050;-68
2023/03/10 09:16:44;;;;;;;2.92;1.13;;;;;;;;;;5002407;28;20050;-69
2023/03/10 09:19:20;;;;;;;3.45;1.40;;;;;;;;;;4979414;28;20076;-68
2023/03/10 09:21:46;;;;;;;3.38;1.33;;;;;;;;;;4984023;28;20116;-71
2023/03/10 09:24:16;;;;;;;3.75;1.45;;;;;;;;;;5007856;28;20060;-69
2023/03/10 09:26:48;;;;;;;4.22;1.30;;;;;;;;;;4993524;28;20049;-67
2023/03/10 09:29:19;;;;;;;4.25;1.42;;;;;;;;;;5026942;28;20200;-70
2023/03/10 09:31:49;;;;;;;2.60;1.20;;;;;;;;;;4983952;28;20061;-68
2023/03/10 09:34:16;;;;;;;3.22;1.33;;;;;;;;;;4969966;28;20049;-70
2023/03/10 09:36:45;;;;;;;4.35;1.30;;;;;;;;;;4989371;28;20436;-70
2023/03/10 09:39:12;;;;;;;2.45;1.15;;;;;;;;;;4981638;28;20049;-69
2023/03/10 09:42:03;;;;;;;3.25;1.50;;;;;;;;;;4984643;28;20077;-71
2023/03/10 09:44:44;;;;;;;3.20;1.40;;;;;;;;;;4943704;28;20119;-69
2023/03/10 09:47:26;;;;;;;4.75;1.50;;;;;;;;;;4960965;28;20196;-68
2023/03/10 09:50:10;;;;;;;2.58;1.27;;;;;;;;;;4995671;28;20045;-70
2023/03/10 09:52:45;;;;;;;2.38;1.08;;;;;;;;;;4991968;28;20077;-69
2023/03/10 09:55:19;;;;;;;3.88;1.67;;;;;;;;;;4980847;28;20049;-70
2023/03/10 09:57:50;;;;;;;3.28;1.40;;;;;;;;;;5002261;28;20148;-70
2023/03/10 10:00:27;;;;;;;4.13;1.67;;;;;;;;;;5000330;28;20054;-69
2023/03/10 10:03:00;;;;;;;2.17;1.17;;;;;;;;;;5003868;28;20053;-67
2023/03/10 10:05:32;;;;;;;3.35;1.42;;;;;;;;;;5008299;28;20119;-68
2023/03/10 10:08:00;;;;;;;2.88;1.30;;;;;;;;;;4991229;28;20080;-69
2023/03/10 10:10:28;;;;;;;3.20;1.50;;;;;;;;;;4991761;28;20302;-70
2023/03/10 10:12:56;;;;;;;2.15;1.10;;;;;;;;;;5002101;28;20180;-68
2023/03/10 10:15:33;;;;;;;2.72;1.20;;;;;;;;;;4961146;28;20043;-70
2023/03/10 10:18:10;;;;;;;2.83;1.25;;;;;;;;;;4972522;28;21303;-68
2023/03/10 10:20:43;;;;;;;2.65;1.40;;;;;;;;;;4952023;28;20117;-69
2023/03/10 10:23:33;;;;;;;2.03;1.10;;;;;;;;;;4937930;28;20065;-71
2023/03/10 10:26:11;;;;;;;3.33;1.35;;;;;;;;;;4943694;28;20237;-71
2023/03/10 10:28:56;;;;;;;2.60;1.08;;;;;;;;;;4928595;28;20046;-70
2023/03/10 10:31:31;;;;;;;3.03;1.15;;;;;;;;;;4941724;28;20204;-69
2023/03/10 10:34:05;;;;;;;3.38;1.52;;;;;;;;;;4948647;28;20069;-69
2023/03/10 10:36:40;;;;;;;3.03;1.38;;;;;;;;;;4941478;28;20057;-69
2023/03/10 10:39:22;;;;;;;4.28;1.25;;;;;;;;;;4954715;28;20042;-70
2023/03/10 10:41:49;;;;;;;2.90;1.20;;;;;;;;;;4959005;28;20141;-70
2023/03/10 10:44:16;;;;;;;1.40;0.88;;;;;;;;;;4932949;28;20051;-68
2023/03/10 10:46:57;;;;;;;3.05;1.27;;;;;;;;;;4962075;28;20058;-69
2023/03/10 10:49:27;;;;;;;3.45;1.50;;;;;;;;;;4960880;28;20061;-69
2023/03/10 10:51:58;;;;;;;3.85;1.30;;;;;;;;;;4946924;28;20088;-70
2023/03/10 10:54:31;;;;;;;3.10;1.48;;;;;;;;;;4945129;28;20152;-71
2023/03/10 10:57:00;;;;;;;2.72;1.38;;;;;;;;;;4968613;28;20061;-72
2023/03/10 10:59:36;;;;;;;2.67;1.25;;;;;;;;;;4962637;28;20145;-72
2023/03/10 11:02:21;;;;;;;2.40;1.15;;;;;;;;;;4959759;28;20409;-73
2023/03/10 11:04:53;;;;;;;3.15;1.20;;;;;;;;;;4954577;28;20057;-72
2023/03/10 11:07:25;;;;;;;3.42;1.02;;;;;;;;;;4956294;28;20061;-69
2023/03/10 11:09:56;;;;;;;3.30;1.50;;;;;;;;;;4953790;28;20079;-69
2023/03/10 11:12:27;;;;;;;2.95;1.15;;;;;;;;;;4978374;28;20053;-69
2023/03/10 11:15:12;;;;;;;2.33;1.10;;;;;;;;;;4974014;28;20057;-69
2023/03/10 11:17:43;;;;;;;3.10;1.10;;;;;;;;;;4955923;28;20054;-68
2023/03/10 11:20:19;;;;;;;3.03;1.30;;;;;;;;;;4975029;28;20038;-69
2023/03/10 11:22:51;;;;;;;5.30;1.25;;;;;;;;;;4979459;28;20054;-71
2023/03/10 11:25:35;;;;;;;3.22;1.10;;;;;;;;;;4973564;28;20050;-70
2023/03/10 11:28:18;;;;;;;3.72;1.50;;;;;;;;;;4924565;28;20054;-68
2023/03/10 11:30:52;;;;;;;2.40;1.40;;;;;;;;;;4954001;28;20042;-70
2023/03/10 11:33:29;;;;;;;3.67;1.40;;;;;;;;;;4977593;28;20061;-69
2023/03/10 11:36:11;;;;;;;2.20;1.17;;;;;;;;;;4975771;28;20045;-70
2023/03/10 11:38:50;;;;;;;2.58;1.38;;;;;;;;;;5004723;28;20140;-71
2023/03/10 11:41:22;;;;;;;3.38;1.30;;;;;;;;;;4958706;28;20046;-71
2023/03/10 11:43:56;;;;;;;2.00;1.00;;;;;;;;;;4940648;28;20406;-70
2023/03/10 11:46:39;;;;;;;2.53;1.20;;;;;;;;;;4938293;28;20062;-70
2023/03/10 11:49:13;;;;;;;2.65;1.45;;;;;;;;;;4936337;28;20149;-71
2023/03/10 11:51:53;;;;;;;3.60;1.20;;;;;;;;;;4925479;28;20049;-71
2023/03/10 11:54:31;;;;;;;2.17;1.10;;;;;;;;;;4927881;28;20050;-72
2023/03/10 11:57:04;;;;;;;2.05;1.10;;;;;;;;;;4892051;28;20061;-72
2023/03/10 12:07:41;;;;;;;2.33;0.98;;;;;;;;;;5041239;27;20451;-73
2023/03/10 12:10:20;;;;;;;2.10;1.00;;;;;;;;;;4998571;28;20061;-68
2023/03/10 12:12:48;;;;;;;3.42;1.25;;;;;;;;;;4982160;28;20049;-70
2023/03/10 12:15:18;;;;;;;2.03;1.05;;;;;;;;;;4992688;28;20057;-71
2023/03/10 12:17:49;;;;;;;2.40;1.05;;;;;;;;;;4989829;28;20512;-71
2023/03/10 12:20:27;;;;;;;4.00;1.40;;;;;;;;;;4973553;28;20054;-71
2023/03/10 12:23:02;;;;;;;2.40;1.10;;;;;;;;;;4965514;28;20325;-69
2023/03/10 12:25:52;;;;;;;1.42;0.80;;;;;;;;;;4985130;28;20386;-70
2023/03/10 12:28:26;;;;;;;1.98;0.95;;;;;;;;;;4966867;28;20061;-69
2023/03/10 12:30:59;;;;;;;2.97;0.98;;;;;;;;;;4943794;28;20050;-70
2023/03/10 12:33:57;;;;;;;2.92;1.30;;;;;;;;;;4907234;28;20062;-70
2023/03/10 12:36:38;;;;;;;1.57;1.00;;;;;;;;;;4993950;28;20038;-71
2023/03/10 12:39:28;;;;;;;1.63;0.90;;;;;;;;;;4944954;28;20342;-71
2023/03/10 12:52:52;;;;;;;;;;;;;;;;;;5098731;27;19926;-73
2023/03/10 12:55:19;;;;;;;;;;;;;;;;;;4998326;28;19939;-70
2023/03/10 12:57:47;;;;;;;;;;;;;;;;;;5002742;28;19964;-72
2023/03/10 13:00:16;;;;;;;;;;;;;;;;;;5007937;28;20047;-72
2023/03/10 13:02:45;;;;;;;;;;;;;;;;;;5016682;28;19944;-71
2023/03/10 13:05:19;;;;;;;;;;;;;;;;;;5021052;28;20056;-70
2023/03/10 13:07:46;;;;;;;;;;;;;;;;;;4955913;28;19931;-70
2023/03/10 13:10:17;;;;;;;;;;;;;;;;;;4920166;28;19930;-71
2023/03/10 13:12:43;;;;;;;;;;;;;;;;;;4937748;28;20021;-72
2023/03/10 13:15:10;;;;;;;;;;;;;;;;;;4941496;28;19930;-72
2023/03/10 13:17:39;;;;;;;;;;;;;;;;;;4949199;28;19930;-71
2023/03/10 13:20:12;;;;;;;;;;;;;;;;;;4930741;28;19930;-69
2023/03/10 13:30:53;;;;;;;;;;;;;;;;;;;;;
2023/03/10 13:33:20;;;;;;;;;;;;;;;;;;4964780;28;19930;-70
2023/03/10 13:35:55;;;;;;;;;;;;;;;;;;4969014;28;19964;-71
2023/03/10 13:38:27;;;;;;;;;;;;;;;;;;4984725;28;20009;-71
2023/03/10 14:00:28;;;;;;;;;;;;;;;;;;4854303;28;20185;-74
2023/03/10 14:05:47;;;;;;;;;;;;;;;;;;4910165;28;20022;-72
2023/03/10 14:26:31;;;;;;;;;;;;;;;;;;6114673;21;6649222;-70
2023/03/10 14:29:05;;;;;;;;;;;;;;;;;;6242475;22;19926;-72
2023/03/10 14:31:42;;;;;;;;;;;;;;;;;;6176240;22;19920;-73
2023/03/10 14:34:23;;;;;;;;;;;;;;;;;;6125632;23;19927;-72
2023/03/10 14:36:51;;;;;;;;;;;;;;;;;;6138118;23;19971;-72
2023/03/10 14:55:15;;;;;;;;;;;;;;;;;;4998010;27;19925;-70
2023/03/10 14:57:44;;;;;;;;;;;;;;;;;;4900612;28;19966;-69
2023/03/10 15:02:54;;;;;;;;;;;;;;;;;;4880408;28;19935;-69
2023/03/10 15:05:23;;;;;;;;;;;;;;;;;;4883578;29;20115;-69
2023/03/10 15:15:24;;;;;;;;;;;;;;;;;;4873831;28;20013;-68
2023/03/10 15:18:00;;;;;;;;;;;;;;;;;;4885556;28;19930;-68
2023/03/10 15:20:37;;;;;;;;;;;;;;;;;;4884389;29;19931;-69
2023/03/10 15:23:06;;;;;;;;;;;;;;;;;;4935368;28;20029;-70
2023/03/10 15:28:16;;;;;;;;;;;;;;;;;;4884779;29;19931;-68
2023/03/10 15:33:35;;;;;;;;;;;;;;;;;;4915957;28;20017;-69
2023/03/10 15:36:04;;;;;;;;;;;;;;;;;;4913737;28;19935;-68
2023/03/10 15:54:11;;;;;;;;;;;;;;;;;;4854323;28;19930;-71
2023/03/10 15:56:38;;;;;;;;;;;;;;;;;;4882561;28;19935;-69
2023/03/10 15:59:06;;;;;;;;;;;;;;;;;;4914696;28;19934;-70
2023/03/10 16:01:40;;;;;;;;;;;;;;;;;;4893258;28;19945;-70
2023/03/10 16:04:15;;;;;;;;;;;;;;;;;;4908287;28;19927;-71
2023/03/10 16:06:43;;;;;;;;;;;;;;;;;;4909204;28;20009;-68
2023/03/10 16:12:08;;;;;;;;;;;;;;;;;;4922877;28;19926;-68
2023/03/10 16:14:39;;;;;;;;;;;;;;;;;;4909635;28;19930;-69
2023/03/10 16:17:16;;;;;;;;;;;;;;;;;;;;;
2023/03/10 16:20:09;;;;;;;;;;;;;;;;;;4875249;28;19939;-69
2023/03/10 16:22:43;;;;;;;;;;;;;;;;;;4947615;28;19933;-68
2023/03/10 16:25:15;;;;;;;;;;;;;;;;;;4935144;28;20013;-68
2023/03/10 16:27:48;;;;;;;;;;;;;;;;;;4943823;28;19933;-68
2023/03/10 16:33:05;;;;;;;;;;;;;;;;;;4949787;28;19926;-68
2023/03/10 16:35:41;;;;;;;;;;;;;;;;;;4967006;28;19964;-67
2023/03/10 16:38:11;;;;;;;;;;;;;;;;;;4981953;28;19929;-67
2023/03/10 16:40:53;;;;;;;;;;;;;;;;;;4958330;28;19974;-68
2023/03/10 16:46:01;;;;;;;;;;;;;;;;;;4950276;28;19937;-68
2023/03/10 16:48:31;;;;;;;;;;;;;;;;;;4959681;28;19937;-68
2023/03/10 16:50:57;;;;;;;;;;;;;;;;;;4945748;28;20024;-67
2023/03/10 16:53:28;;;;;;;;;;;;;;;;;;4953730;28;19930;-67
2023/03/10 16:55:55;;;;;;;;;;;;;;;;;;4930242;28;19930;-67
2023/03/10 16:58:22;;;;;;;;;;;;;;;;;;4964981;28;19930;-67
2023/03/10 17:00:51;;;;;;;;;;;;;;;;;;4937328;28;19930;-67
2023/03/10 17:03:23;;;;;;;;;;;;;;;;;;4944779;28;19937;-67
2023/03/10 17:05:53;;;;;;;;;;;;;;;;;;4924131;28;20053;-67
2023/03/10 17:08:20;;;;;;;;;;;;;;;;;;4942073;28;19930;-68
2023/03/10 17:10:52;;;;;;;;;;;;;;;;;;4899438;28;19938;-67
2023/03/10 17:13:24;;;;;;;;;;;;;;;;;;4930617;28;19930;-68
2023/03/10 17:15:58;;;;;;;;;;;;;;;;;;4938299;28;19931;-67
2023/03/10 17:18:36;;;;;;;;;;;;;;;;;;4899866;28;19930;-67
2023/03/10 17:21:10;;;;;;;;;;;;;;;;;;4897453;28;19930;-67
2023/03/10 17:23:37;;;;;;;;;;;;;;;;;;4912808;28;19931;-68
2023/03/10 17:26:17;;;;;;;;;;;;;;;;;;;;;
2023/03/10 17:28:44;;;;;;;;;;;;;;;;;;4910116;28;19970;-67
2023/03/10 17:31:12;;;;;;;;;;;;;;;;;;4921322;28;19965;-68
2023/03/10 17:33:41;;;;;;;;;;;;;;;;;;4911899;28;19937;-67
2023/03/10 17:36:08;;;;;;;;;;;;;;;;;;4936978;28;20021;-67
2023/03/10 17:38:34;;;;;;;;;;;;;;;;;;4923963;28;19974;-66
2023/03/10 17:41:03;;;;;;;;;;;;;;;;;;4946130;28;19933;-67
2023/03/10 17:43:33;;;;;;;;;;;;;;;;;;4957885;28;19930;-67
2023/03/10 17:45:59;;;;;;;;;;;;;;;;;;4959813;28;19963;-67
2023/03/10 17:48:25;;;;;;;;;;;;;;;;;;4952379;28;19930;-67
2023/03/10 17:50:53;;;;;;;;;;;;;;;;;;4986760;28;20171;-67
2023/03/10 17:53:19;;;;;;;;;;;;;;;;;;4981944;28;19930;-67
2023/03/10 17:55:46;;;;;;;;;;;;;;;;;;4970756;28;19929;-67
2023/03/10 17:58:12;;;;;;;;;;;;;;;;;;4959743;28;19929;-67
2023/03/10 18:00:43;;;;;;;;;;;;;;;;;;4954081;28;19929;-68
2023/03/10 18:03:09;;;;;;;;;;;;;;;;;;4997894;28;20367;-69
2023/03/10 18:05:36;;;;;;;;;;;;;;;;;;4981121;28;20031;-68